sensor_id;sensor_type;location;lat;lon;timestamp;pressure;altitude;pressure_sealevel;temperature;humidity
54503;BME280;40411;50.090;21.954;2023-05-24T00:02:07;-19559.66;;;15.83;100.00
54503;BME280;40411;50.090;21.954;2023-05-24T00:04:33;-19559.94;;;15.84;100.00
54503;BME280;40411;50.090;21.954;2023-05-24T00:07:00;-19562.09;;;15.93;100.00
54503;BME280;40411;50.090;21.954;2023-05-24T00:09:29;-19563.59;;;15.99;100.00
54503;BME280;40411;50.090;21.954;2023-05-24T00:11:55;-19563.72;;;15.99;100.00
54503;BME280;40411;50.090;21.954;2023-05-24T00:14:21;-19560.69;;;15.87;100.00
54503;BME280;40411;50.090;21.954;2023-05-24T00:16:47;-19559.53;;;15.82;100.00
54503;BME280;40411;50.090;21.954;2023-05-24T00:19:13;-19562.22;;;15.93;100.00
54503;BME280;40411;50.090;21.954;2023-05-24T00:21:46;-19562.47;;;15.94;100.00
54503;BME280;40411;50.090;21.954;2023-05-24T00:24:12;-19562.72;;;15.95;100.00
54503;BME280;40411;50.090;21.954;2023-05-24T00:26:39;-19564.25;;;16.01;100.00
54503;BME280;40411;50.090;21.954;2023-05-24T00:29:05;-19562.59;;;15.95;100.00
54503;BME280;40411;50.090;21.954;2023-05-24T00:31:31;-19562.34;;;15.94;100.00
54503;BME280;40411;50.090;21.954;2023-05-24T00:33:57;-19560.69;;;15.87;100.00
54503;BME280;40411;50.090;21.954;2023-05-24T00:36:23;-19558.53;;;15.78;100.00
54503;BME280;40411;50.090;21.954;2023-05-24T00:38:49;-19557.63;;;15.75;100.00
54503;BME280;40411;50.090;21.954;2023-05-24T00:41:15;-19557.88;;;15.76;100.00
54503;BME280;40411;50.090;21.954;2023-05-24T00:43:41;-19561.84;;;15.92;100.00
54503;BME280;40411;50.090;21.954;2023-05-24T00:48:36;-19562.09;;;15.93;100.00
54503;BME280;40411;50.090;21.954;2023-05-24T00:51:02;-19561.56;;;15.91;100.00
54503;BME280;40411;50.090;21.954;2023-05-24T00:53:28;-19558.41;;;15.78;100.00
54503;BME280;40411;50.090;21.954;2023-05-24T00:55:55;-19558.03;;;15.76;100.00
54503;BME280;40411;50.090;21.954;2023-05-24T00:58:21;-19557.88;;;15.76;100.00
54503;BME280;40411;50.090;21.954;2023-05-24T01:00:52;-19558.41;;;15.78;100.00
54503;BME280;40411;50.090;21.954;2023-05-24T01:03:21;-19558.41;;;15.78;100.00
54503;BME280;40411;50.090;21.954;2023-05-24T01:05:47;-19558.16;;;15.77;100.00
54503;BME280;40411;50.090;21.954;2023-05-24T01:08:47;-19559.66;;;15.83;100.00
54503;BME280;40411;50.090;21.954;2023-05-24T01:14:23;-19561.19;;;15.89;100.00
54503;BME280;40411;50.090;21.954;2023-05-24T01:16:57;-19560.94;;;15.88;100.00
54503;BME280;40411;50.090;21.954;2023-05-24T01:19:50;-19561.69;;;15.91;100.00
54503;BME280;40411;50.090;21.954;2023-05-24T01:22:39;-19562.84;;;15.96;100.00
54503;BME280;40411;50.090;21.954;2023-05-24T01:25:36;-19562.47;;;15.94;100.00
54503;BME280;40411;50.090;21.954;2023-05-24T01:28:05;-19561.84;;;15.92;100.00
54503;BME280;40411;50.090;21.954;2023-05-24T01:30:32;-19561.44;;;15.90;100.00
54503;BME280;40411;50.090;21.954;2023-05-24T01:32:59;-19561.19;;;15.89;100.00
54503;BME280;40411;50.090;21.954;2023-05-24T01:35:24;-19561.19;;;15.89;100.00
54503;BME280;40411;50.090;21.954;2023-05-24T01:37:50;-19561.44;;;15.90;100.00
54503;BME280;40411;50.090;21.954;2023-05-24T01:40:16;-19560.69;;;15.87;100.00
54503;BME280;40411;50.090;21.954;2023-05-24T01:42:44;-19560.69;;;15.87;100.00
54503;BME280;40411;50.090;21.954;2023-05-24T01:45:22;-19560.56;;;15.86;100.00
54503;BME280;40411;50.090;21.954;2023-05-24T01:50:32;-19559.66;;;15.83;100.00
54503;BME280;40411;50.090;21.954;2023-05-24T01:53:07;-19560.31;;;15.85;100.00
54503;BME280;40411;50.090;21.954;2023-05-24T01:55:34;-19559.53;;;15.82;100.00
54503;BME280;40411;50.090;21.954;2023-05-24T01:58:03;-19559.53;;;15.82;100.00
54503;BME280;40411;50.090;21.954;2023-05-24T02:00:31;-19559.81;;;15.83;100.00
54503;BME280;40411;50.090;21.954;2023-05-24T02:02:58;-19558.41;;;15.78;100.00
54503;BME280;40411;50.090;21.954;2023-05-24T02:05:23;-19557.25;;;15.73;100.00
54503;BME280;40411;50.090;21.954;2023-05-24T02:07:50;-19557.75;;;15.75;100.00
54503;BME280;40411;50.090;21.954;2023-05-24T02:10:16;-19556.50;;;15.70;100.00
54503;BME280;40411;50.090;21.954;2023-05-24T02:12:42;-19556.88;;;15.72;100.00
54503;BME280;40411;50.090;21.954;2023-05-24T02:15:08;-19556.38;;;15.70;100.00
54503;BME280;40411;50.090;21.954;2023-05-24T02:17:35;-19557.38;;;15.74;100.00
54503;BME280;40411;50.090;21.954;2023-05-24T02:20:02;-19557.88;;;15.76;100.00
54503;BME280;40411;50.090;21.954;2023-05-24T02:22:28;-19557.63;;;15.75;100.00
54503;BME280;40411;50.090;21.954;2023-05-24T02:24:54;-19558.16;;;15.77;100.00
54503;BME280;40411;50.090;21.954;2023-05-24T02:27:20;-19558.91;;;15.80;100.00
54503;BME280;40411;50.090;21.954;2023-05-24T02:29:46;-19559.16;;;15.81;100.00
54503;BME280;40411;50.090;21.954;2023-05-24T02:32:12;-19559.03;;;15.80;100.00
54503;BME280;40411;50.090;21.954;2023-05-24T02:34:38;-19559.16;;;15.81;100.00
54503;BME280;40411;50.090;21.954;2023-05-24T02:37:04;-19557.38;;;15.74;100.00
54503;BME280;40411;50.090;21.954;2023-05-24T02:39:30;-19558.41;;;15.78;100.00
54503;BME280;40411;50.090;21.954;2023-05-24T02:41:57;-19558.78;;;15.79;100.00
54503;BME280;40411;50.090;21.954;2023-05-24T02:44:23;-19558.91;;;15.80;100.00
54503;BME280;40411;50.090;21.954;2023-05-24T02:46:49;-19558.78;;;15.79;100.00
54503;BME280;40411;50.090;21.954;2023-05-24T02:49:15;-19557.88;;;15.76;100.00
54503;BME280;40411;50.090;21.954;2023-05-24T02:51:41;-19556.38;;;15.70;100.00
54503;BME280;40411;50.090;21.954;2023-05-24T02:54:07;-19555.09;;;15.64;100.00
54503;BME280;40411;50.090;21.954;2023-05-24T02:56:32;-19555.59;;;15.67;100.00
54503;BME280;40411;50.090;21.954;2023-05-24T02:59:00;-19555.84;;;15.68;100.00
54503;BME280;40411;50.090;21.954;2023-05-24T03:01:28;-19555.34;;;15.65;100.00
54503;BME280;40411;50.090;21.954;2023-05-24T03:03:56;-19556.38;;;15.70;100.00
54503;BME280;40411;50.090;21.954;2023-05-24T03:06:22;-19556.25;;;15.69;100.00
54503;BME280;40411;50.090;21.954;2023-05-24T03:08:48;-19556.75;;;15.71;100.00
54503;BME280;40411;50.090;21.954;2023-05-24T03:11:14;-19555.72;;;15.67;100.00
54503;BME280;40411;50.090;21.954;2023-05-24T03:13:40;-19555.84;;;15.68;100.00
54503;BME280;40411;50.090;21.954;2023-05-24T03:16:06;-19555.47;;;15.66;100.00
54503;BME280;40411;50.090;21.954;2023-05-24T03:18:32;-19555.59;;;15.67;100.00
54503;BME280;40411;50.090;21.954;2023-05-24T03:20:58;-19556.25;;;15.69;100.00
54503;BME280;40411;50.090;21.954;2023-05-24T03:23:24;-19558.28;;;15.77;100.00
54503;BME280;40411;50.090;21.954;2023-05-24T03:25:50;-19558.41;;;15.78;100.00
54503;BME280;40411;50.090;21.954;2023-05-24T03:28:15;-19558.28;;;15.77;100.00
54503;BME280;40411;50.090;21.954;2023-05-24T03:30:43;-19558.16;;;15.77;100.00
54503;BME280;40411;50.090;21.954;2023-05-24T03:33:08;-19559.53;;;15.82;100.00
54503;BME280;40411;50.090;21.954;2023-05-24T03:35:34;-19560.94;;;15.88;100.00
54503;BME280;40411;50.090;21.954;2023-05-24T03:38:00;-19560.69;;;15.87;100.00
54503;BME280;40411;50.090;21.954;2023-05-24T03:40:28;-19564.75;;;16.03;100.00
54503;BME280;40411;50.090;21.954;2023-05-24T03:43:01;-19564.13;;;16.01;100.00
54503;BME280;40411;50.090;21.954;2023-05-24T03:45:44;-19564.00;;;16.00;100.00
54503;BME280;40411;50.090;21.954;2023-05-24T03:48:09;-19566.28;;;16.09;100.00
54503;BME280;40411;50.090;21.954;2023-05-24T03:50:35;-19565.78;;;16.07;100.00
54503;BME280;40411;50.090;21.954;2023-05-24T03:53:01;-19566.91;;;16.12;100.00
54503;BME280;40411;50.090;21.954;2023-05-24T03:55:27;-19566.28;;;16.09;100.00
54503;BME280;40411;50.090;21.954;2023-05-24T03:57:53;-19568.19;;;16.17;100.00
54503;BME280;40411;50.090;21.954;2023-05-24T04:00:19;-19569.56;;;16.23;100.00
54503;BME280;40411;50.090;21.954;2023-05-24T04:02:46;-19570.72;;;16.27;100.00
54503;BME280;40411;50.090;21.954;2023-05-24T04:05:13;-19572.38;;;16.34;100.00
54503;BME280;40411;50.090;21.954;2023-05-24T04:07:39;-19573.13;;;16.37;100.00
54503;BME280;40411;50.090;21.954;2023-05-24T04:10:06;-19575.03;;;16.45;100.00
54503;BME280;40411;50.090;21.954;2023-05-24T04:12:32;-19575.41;;;16.46;100.00
54503;BME280;40411;50.090;21.954;2023-05-24T04:14:59;-19577.44;;;16.54;100.00
54503;BME280;40411;50.090;21.954;2023-05-24T04:17:26;-19578.56;;;16.59;100.00
54503;BME280;40411;50.090;21.954;2023-05-24T04:19:54;-19580.47;;;16.67;100.00
54503;BME280;40411;50.090;21.954;2023-05-24T04:22:20;-19581.25;;;16.70;100.00
54503;BME280;40411;50.090;21.954;2023-05-24T04:24:47;-19581.25;;;16.70;100.00
54503;BME280;40411;50.090;21.954;2023-05-24T04:27:13;-19581.75;;;16.72;100.00
54503;BME280;40411;50.090;21.954;2023-05-24T04:29:40;-19582.50;;;16.75;100.00
54503;BME280;40411;50.090;21.954;2023-05-24T04:32:06;-19583.78;;;16.80;100.00
54503;BME280;40411;50.090;21.954;2023-05-24T04:34:34;-19587.34;;;16.94;100.00
54503;BME280;40411;50.090;21.954;2023-05-24T04:37:01;-19590.88;;;17.09;100.00
54503;BME280;40411;50.090;21.954;2023-05-24T04:39:31;-19591.25;;;17.10;100.00
54503;BME280;40411;50.090;21.954;2023-05-24T04:41:57;-19588.22;;;16.98;100.00
54503;BME280;40411;50.090;21.954;2023-05-24T04:44:25;-19590.63;;;17.08;100.00
54503;BME280;40411;50.090;21.954;2023-05-24T04:46:52;-19589.75;;;17.04;100.00
54503;BME280;40411;50.090;21.954;2023-05-24T04:49:18;-19591.00;;;17.09;100.00
54503;BME280;40411;50.090;21.954;2023-05-24T04:51:44;-19593.66;;;17.20;100.00
54503;BME280;40411;50.090;21.954;2023-05-24T04:54:11;-19596.72;;;17.32;100.00
54503;BME280;40411;50.090;21.954;2023-05-24T04:56:37;-19591.66;;;17.12;100.00
54503;BME280;40411;50.090;21.954;2023-05-24T04:59:04;-19595.19;;;17.26;100.00
54503;BME280;40411;50.090;21.954;2023-05-24T05:01:31;-19596.47;;;17.31;100.00
54503;BME280;40411;50.090;21.954;2023-05-24T05:03:57;-19597.09;;;17.34;100.00
54503;BME280;40411;50.090;21.954;2023-05-24T05:06:23;-19600.63;;;17.48;100.00
54503;BME280;40411;50.090;21.954;2023-05-24T05:08:49;-19599.38;;;17.43;100.00
54503;BME280;40411;50.090;21.954;2023-05-24T05:11:17;-19598.75;;;17.40;100.00
54503;BME280;40411;50.090;21.954;2023-05-24T05:13:46;-19598.75;;;17.40;100.00
54503;BME280;40411;50.090;21.954;2023-05-24T05:16:12;-19597.72;;;17.36;100.00
54503;BME280;40411;50.090;21.954;2023-05-24T05:18:38;-19599.50;;;17.43;100.00
54503;BME280;40411;50.090;21.954;2023-05-24T05:21:03;-19601.53;;;17.52;100.00
54503;BME280;40411;50.090;21.954;2023-05-24T05:23:29;-19600.88;;;17.49;100.00
54503;BME280;40411;50.090;21.954;2023-05-24T05:25:55;-19601.03;;;17.50;100.00
54503;BME280;40411;50.090;21.954;2023-05-24T05:28:21;-19601.53;;;17.52;100.00
54503;BME280;40411;50.090;21.954;2023-05-24T05:30:47;-19602.78;;;17.57;100.00
54503;BME280;40411;50.090;21.954;2023-05-24T05:33:13;-19604.06;;;17.62;100.00
54503;BME280;40411;50.090;21.954;2023-05-24T05:35:39;-19612.41;;;17.96;100.00
54503;BME280;40411;50.090;21.954;2023-05-24T05:38:05;-19608.63;;;17.80;100.00
54503;BME280;40411;50.090;21.954;2023-05-24T05:40:30;-19613.44;;;18.00;100.00
54503;BME280;40411;50.090;21.954;2023-05-24T05:42:56;-19618.75;;;18.21;100.00
54503;BME280;40411;50.090;21.954;2023-05-24T05:45:23;-19622.66;;;18.37;100.00
54503;BME280;40411;50.090;21.954;2023-05-24T05:47:49;-19615.47;;;18.08;100.00
54503;BME280;40411;50.090;21.954;2023-05-24T05:50:15;-19617.72;;;18.17;100.00
54503;BME280;40411;50.090;21.954;2023-05-24T05:52:41;-19613.94;;;18.02;100.00
54503;BME280;40411;50.090;21.954;2023-05-24T05:55:07;-19615.47;;;18.08;100.00
54503;BME280;40411;50.090;21.954;2023-05-24T05:57:34;-19622.16;;;18.35;100.00
54503;BME280;40411;50.090;21.954;2023-05-24T05:59:59;-19621.78;;;18.34;100.00
54503;BME280;40411;50.090;21.954;2023-05-24T06:02:26;-19620.00;;;18.26;100.00
54503;BME280;40411;50.090;21.954;2023-05-24T06:04:52;-19627.09;;;18.55;100.00
54503;BME280;40411;50.090;21.954;2023-05-24T06:07:18;-19623.44;;;18.40;100.00
54503;BME280;40411;50.090;21.954;2023-05-24T06:09:43;-19621.03;;;18.30;100.00
54503;BME280;40411;50.090;21.954;2023-05-24T06:12:10;-19623.69;;;18.41;100.00
54503;BME280;40411;50.090;21.954;2023-05-24T06:14:35;-19626.72;;;18.53;100.00
54503;BME280;40411;50.090;21.954;2023-05-24T06:17:04;-19624.44;;;18.44;100.00
54503;BME280;40411;50.090;21.954;2023-05-24T06:19:30;-19622.16;;;18.35;100.00
54503;BME280;40411;50.090;21.954;2023-05-24T06:21:58;-19623.31;;;18.40;100.00
54503;BME280;40411;50.090;21.954;2023-05-24T06:24:23;-19633.44;;;18.81;100.00
54503;BME280;40411;50.090;21.954;2023-05-24T06:26:51;-19629.88;;;18.66;100.00
54503;BME280;40411;50.090;21.954;2023-05-24T06:29:17;-19632.53;;;18.77;100.00
54503;BME280;40411;50.090;21.954;2023-05-24T06:31:47;-19629.88;;;18.66;100.00
54503;BME280;40411;50.090;21.954;2023-05-24T06:34:13;-19618.88;;;18.22;100.00
54503;BME280;40411;50.090;21.954;2023-05-24T06:36:42;-19616.47;;;18.12;100.00
54503;BME280;40411;50.090;21.954;2023-05-24T06:39:08;-19618.75;;;18.21;100.00
54503;BME280;40411;50.090;21.954;2023-05-24T06:41:35;-19620.66;;;18.29;100.00
54503;BME280;40411;50.090;21.954;2023-05-24T06:44:02;-19620.00;;;18.26;100.00
54503;BME280;40411;50.090;21.954;2023-05-24T06:46:28;-19616.59;;;18.13;100.00
54503;BME280;40411;50.090;21.954;2023-05-24T06:48:53;-19614.69;;;18.05;100.00
54503;BME280;40411;50.090;21.954;2023-05-24T06:51:19;-19608.63;;;17.80;100.00
54503;BME280;40411;50.090;21.954;2023-05-24T06:53:45;-19612.16;;;17.95;100.00
54503;BME280;40411;50.090;21.954;2023-05-24T06:56:11;-19610.41;;;17.88;100.00
54503;BME280;40411;50.090;21.954;2023-05-24T06:58:37;-19611.91;;;17.94;100.00
54503;BME280;40411;50.090;21.954;2023-05-24T07:01:03;-19609.38;;;17.83;100.00
54503;BME280;40411;50.090;21.954;2023-05-24T07:03:32;-19612.94;;;17.98;100.00
54503;BME280;40411;50.090;21.954;2023-05-24T07:05:58;-19608.88;;;17.81;100.00
54503;BME280;40411;50.090;21.954;2023-05-24T07:08:24;-19614.19;;;18.03;100.00
54503;BME280;40411;50.090;21.954;2023-05-24T07:10:50;-19612.66;;;17.97;100.00
54503;BME280;40411;50.090;21.954;2023-05-24T07:13:16;-19609.63;;;17.84;100.00
54503;BME280;40411;50.090;21.954;2023-05-24T07:15:42;-19617.22;;;18.15;100.00
54503;BME280;40411;50.090;21.954;2023-05-24T07:18:08;-19612.66;;;17.97;100.00
54503;BME280;40411;50.090;21.954;2023-05-24T07:20:34;-19613.69;;;18.01;100.00
54503;BME280;40411;50.090;21.954;2023-05-24T07:23:00;-19620.13;;;18.27;100.00
54503;BME280;40411;50.090;21.954;2023-05-24T07:25:26;-19613.94;;;18.02;100.00
54503;BME280;40411;50.090;21.954;2023-05-24T07:27:52;-19614.31;;;18.03;100.00
54503;BME280;40411;50.090;21.954;2023-05-24T07:30:18;-19620.00;;;18.26;100.00
54503;BME280;40411;50.090;21.954;2023-05-24T07:32:44;-19622.78;;;18.38;100.00
54503;BME280;40411;50.090;21.954;2023-05-24T07:35:11;-19624.94;;;18.46;100.00
54503;BME280;40411;50.090;21.954;2023-05-24T07:37:40;-19627.47;;;18.57;100.00
54503;BME280;40411;50.090;21.954;2023-05-24T07:40:07;-19623.94;;;18.42;100.00
54503;BME280;40411;50.090;21.954;2023-05-24T07:42:38;-19625.06;;;18.47;100.00
54503;BME280;40411;50.090;21.954;2023-05-24T07:45:06;-19623.94;;;18.42;100.00
54503;BME280;40411;50.090;21.954;2023-05-24T07:47:33;-19632.41;;;18.77;100.00
54503;BME280;40411;50.090;21.954;2023-05-24T07:49:59;-19623.56;;;18.41;100.00
54503;BME280;40411;50.090;21.954;2023-05-24T07:52:25;-19621.03;;;18.30;100.00
54503;BME280;40411;50.090;21.954;2023-05-24T07:54:51;-19611.16;;;17.91;100.00
54503;BME280;40411;50.090;21.954;2023-05-24T07:57:20;-19614.81;;;18.05;100.00
54503;BME280;40411;50.090;21.954;2023-05-24T07:59:46;-19611.16;;;17.91;100.00
54503;BME280;40411;50.090;21.954;2023-05-24T08:02:11;-19617.47;;;18.16;100.00
54503;BME280;40411;50.090;21.954;2023-05-24T08:04:42;-19618.00;;;18.18;100.00
54503;BME280;40411;50.090;21.954;2023-05-24T08:07:13;-19620.13;;;18.27;100.00
54503;BME280;40411;50.090;21.954;2023-05-24T08:09:40;-19622.78;;;18.38;100.00
54503;BME280;40411;50.090;21.954;2023-05-24T08:12:06;-19623.56;;;18.41;100.00
54503;BME280;40411;50.090;21.954;2023-05-24T08:14:32;-19626.59;;;18.53;100.00
54503;BME280;40411;50.090;21.954;2023-05-24T08:16:58;-19619.75;;;18.25;100.00
54503;BME280;40411;50.090;21.954;2023-05-24T08:19:26;-19621.16;;;18.31;100.00
54503;BME280;40411;50.090;21.954;2023-05-24T08:21:54;-19624.94;;;18.46;100.00
54503;BME280;40411;50.090;21.954;2023-05-24T08:24:21;-19626.59;;;18.53;100.00
54503;BME280;40411;50.090;21.954;2023-05-24T08:26:47;-19624.06;;;18.43;100.00
54503;BME280;40411;50.090;21.954;2023-05-24T08:29:14;-19625.56;;;18.49;100.00
54503;BME280;40411;50.090;21.954;2023-05-24T08:31:41;-19630.75;;;18.70;100.00
54503;BME280;40411;50.090;21.954;2023-05-24T08:34:07;-19638.97;;;19.03;100.00
54503;BME280;40411;50.090;21.954;2023-05-24T08:36:33;-19642.00;;;19.15;100.00
54503;BME280;40411;50.090;21.954;2023-05-24T08:38:59;-19636.19;;;18.92;100.00
54503;BME280;40411;50.090;21.954;2023-05-24T08:41:24;-19643.41;;;19.21;100.00
54503;BME280;40411;50.090;21.954;2023-05-24T08:43:52;-19636.47;;;18.93;100.00
54503;BME280;40411;50.090;21.954;2023-05-24T08:46:18;-19638.47;;;19.01;100.00
54503;BME280;40411;50.090;21.954;2023-05-24T08:48:45;-19646.19;;;19.32;100.00
54503;BME280;40411;50.090;21.954;2023-05-24T08:51:15;-19649.47;;;19.46;100.00
54503;BME280;40411;50.090;21.954;2023-05-24T08:53:43;-19657.16;;;19.77;100.00
54503;BME280;40411;50.090;21.954;2023-05-24T08:56:17;-19661.09;;;19.93;100.00
54503;BME280;40411;50.090;21.954;2023-05-24T08:58:43;-19672.44;;;20.39;100.00
54503;BME280;40411;50.090;21.954;2023-05-24T09:01:13;-19678.13;;;20.62;100.00
54503;BME280;40411;50.090;21.954;2023-05-24T09:03:39;-19681.53;;;20.75;100.00
54503;BME280;40411;50.090;21.954;2023-05-24T09:06:08;-19704.81;;;21.70;100.00
54503;BME280;40411;50.090;21.954;2023-05-24T09:08:36;-19702.19;;;21.59;100.00
54503;BME280;40411;50.090;21.954;2023-05-24T09:11:04;-19695.63;;;21.33;100.00
54503;BME280;40411;50.090;21.954;2023-05-24T09:13:32;-19706.72;;;21.78;100.00
54503;BME280;40411;50.090;21.954;2023-05-24T09:15:59;-19725.31;;;22.53;100.00
54503;BME280;40411;50.090;21.954;2023-05-24T09:18:25;-19731.47;;;22.79;100.00
54503;BME280;40411;50.090;21.954;2023-05-24T09:20:51;-19789.28;;;25.14;100.00
54503;BME280;40411;50.090;21.954;2023-05-24T09:23:17;-19799.91;;;25.58;93.23
54503;BME280;40411;50.090;21.954;2023-05-24T09:25:44;-19805.41;;;25.80;92.91
54503;BME280;40411;50.090;21.954;2023-05-24T09:28:14;-19781.03;;;24.81;94.06
54503;BME280;40411;50.090;21.954;2023-05-24T09:30:43;-19788.78;;;25.12;87.88
54503;BME280;40411;50.090;21.954;2023-05-24T09:33:09;-19786.53;;;25.03;97.29
54503;BME280;40411;50.090;21.954;2023-05-24T09:35:35;-19796.28;;;25.43;87.18
54503;BME280;40411;50.090;21.954;2023-05-24T09:38:01;-19786.03;;;25.01;94.60
54503;BME280;40411;50.090;21.954;2023-05-24T09:40:28;-19755.31;;;23.76;93.94
54503;BME280;40411;50.090;21.954;2023-05-24T09:43:02;-19789.91;;;25.17;91.07
54503;BME280;40411;50.090;21.954;2023-05-24T09:45:28;-19802.91;;;25.70;82.96
54503;BME280;40411;50.090;21.954;2023-05-24T09:47:54;-19806.53;;;25.85;83.33
54503;BME280;40411;50.090;21.954;2023-05-24T09:50:20;-19804.78;;;25.78;84.24
54503;BME280;40411;50.090;21.954;2023-05-24T09:52:46;-19811.41;;;26.05;88.38
54503;BME280;40411;50.090;21.954;2023-05-24T09:57:37;-19803.78;;;25.74;80.87
54503;BME280;40411;50.090;21.954;2023-05-24T10:00:07;-19771.63;;;24.42;90.58
54503;BME280;40411;50.090;21.954;2023-05-24T10:02:44;-19758.84;;;23.90;99.29
54503;BME280;40411;50.090;21.954;2023-05-24T10:05:10;-19749.56;;;23.52;95.57
54503;BME280;40411;50.090;21.954;2023-05-24T10:07:39;-19758.34;;;23.88;96.25
54503;BME280;40411;50.090;21.954;2023-05-24T10:10:06;-19735.00;;;22.93;98.61
54503;BME280;40411;50.090;21.954;2023-05-24T10:12:33;-19733.75;;;22.88;100.00
54503;BME280;40411;50.090;21.954;2023-05-24T10:15:00;-19714.88;;;22.11;100.00
54503;BME280;40411;50.090;21.954;2023-05-24T10:17:27;-19723.19;;;22.45;100.00
54503;BME280;40411;50.090;21.954;2023-05-24T10:19:53;-19740.03;;;23.13;100.00
54503;BME280;40411;50.090;21.954;2023-05-24T10:22:20;-19739.91;;;23.13;100.00
54503;BME280;40411;50.090;21.954;2023-05-24T10:24:52;-19752.44;;;23.64;98.04
54503;BME280;40411;50.090;21.954;2023-05-24T10:27:25;-19743.28;;;23.27;100.00
54503;BME280;40411;50.090;21.954;2023-05-24T10:32:42;-19773.13;;;24.48;93.75
54503;BME280;40411;50.090;21.954;2023-05-24T10:35:09;-19761.84;;;24.02;95.87
54503;BME280;40411;50.090;21.954;2023-05-24T10:37:40;-19746.03;;;23.38;97.05
54503;BME280;40411;50.090;21.954;2023-05-24T10:40:15;-19738.63;;;23.08;100.00
54503;BME280;40411;50.090;21.954;2023-05-24T10:42:42;-19746.66;;;23.40;100.00
54503;BME280;40411;50.090;21.954;2023-05-24T10:45:36;-19744.03;;;23.30;99.35
54503;BME280;40411;50.090;21.954;2023-05-24T10:50:42;-19724.44;;;22.50;100.00
54503;BME280;40411;50.090;21.954;2023-05-24T10:53:19;-19724.44;;;22.50;100.00
54503;BME280;40411;50.090;21.954;2023-05-24T10:56:09;-19733.75;;;22.88;100.00
54503;BME280;40411;50.090;21.954;2023-05-24T11:01:12;-19766.50;;;24.21;99.60
54503;BME280;40411;50.090;21.954;2023-05-24T11:03:42;-19799.66;;;25.57;89.94
54503;BME280;40411;50.090;21.954;2023-05-24T11:06:08;-19778.88;;;24.72;89.53
54503;BME280;40411;50.090;21.954;2023-05-24T11:08:35;-19796.78;;;25.45;90.02
54503;BME280;40411;50.090;21.954;2023-05-24T11:13:38;-19778.63;;;24.71;92.86
54503;BME280;40411;50.090;21.954;2023-05-24T11:16:04;-19785.66;;;25.00;99.35
54503;BME280;40411;50.090;21.954;2023-05-24T11:18:31;-19767.88;;;24.27;96.28
54503;BME280;40411;50.090;21.954;2023-05-24T11:21:00;-19743.28;;;23.27;100.00
54503;BME280;40411;50.090;21.954;2023-05-24T11:23:31;-19757.84;;;23.86;98.67
54503;BME280;40411;50.090;21.954;2023-05-24T11:25:57;-19776.13;;;24.61;93.84
54503;BME280;40411;50.090;21.954;2023-05-24T11:28:23;-19752.81;;;23.66;94.62
54503;BME280;40411;50.090;21.954;2023-05-24T11:30:49;-19773.50;;;24.50;96.51
54503;BME280;40411;50.090;21.954;2023-05-24T11:33:19;-19776.88;;;24.64;100.00
54503;BME280;40411;50.090;21.954;2023-05-24T11:35:50;-19789.03;;;25.13;97.05
54503;BME280;40411;50.090;21.954;2023-05-24T11:38:17;-19780.00;;;24.77;90.78
54503;BME280;40411;50.090;21.954;2023-05-24T11:40:48;-19765.22;;;24.16;93.55
54503;BME280;40411;50.090;21.954;2023-05-24T11:43:19;-19754.19;;;23.71;95.57
54503;BME280;40411;50.090;21.954;2023-05-24T11:45:47;-19742.53;;;23.24;99.74
54503;BME280;40411;50.090;21.954;2023-05-24T11:48:17;-19741.78;;;23.20;100.00
54503;BME280;40411;50.090;21.954;2023-05-24T11:50:47;-19744.66;;;23.32;100.00
54503;BME280;40411;50.090;21.954;2023-05-24T11:53:15;-19756.97;;;23.82;100.00
54503;BME280;40411;50.090;21.954;2023-05-24T11:55:41;-19773.88;;;24.51;98.52
54503;BME280;40411;50.090;21.954;2023-05-24T11:58:21;-19783.91;;;24.92;97.87
54503;BME280;40411;50.090;21.954;2023-05-24T12:00:48;-19756.84;;;23.82;97.45
54503;BME280;40411;50.090;21.954;2023-05-24T12:03:14;-19751.56;;;23.60;96.87
54503;BME280;40411;50.090;21.954;2023-05-24T12:05:42;-19744.78;;;23.33;100.00
54503;BME280;40411;50.090;21.954;2023-05-24T12:08:10;-19749.56;;;23.52;100.00
54503;BME280;40411;50.090;21.954;2023-05-24T12:10:40;-19727.84;;;22.64;100.00
54503;BME280;40411;50.090;21.954;2023-05-24T12:13:27;-19731.72;;;22.80;100.00
54503;BME280;40411;50.090;21.954;2023-05-24T12:15:54;-19760.34;;;23.96;100.00
54503;BME280;40411;50.090;21.954;2023-05-24T12:18:22;-19748.06;;;23.46;100.00
54503;BME280;40411;50.090;21.954;2023-05-24T12:20:49;-19741.53;;;23.19;100.00
54503;BME280;40411;50.090;21.954;2023-05-24T12:23:17;-19755.19;;;23.75;96.65
54503;BME280;40411;50.090;21.954;2023-05-24T12:25:43;-19751.06;;;23.58;95.27
54503;BME280;40411;50.090;21.954;2023-05-24T12:28:09;-19761.59;;;24.01;100.00
54503;BME280;40411;50.090;21.954;2023-05-24T12:30:36;-19779.00;;;24.72;95.87
54503;BME280;40411;50.090;21.954;2023-05-24T12:33:09;-19788.91;;;25.13;96.21
54503;BME280;40411;50.090;21.954;2023-05-24T12:35:35;-19775.50;;;24.58;88.94
54503;BME280;40411;50.090;21.954;2023-05-24T12:38:01;-19776.63;;;24.63;95.44
54503;BME280;40411;50.090;21.954;2023-05-24T12:40:26;-19767.38;;;24.25;90.05
54503;BME280;40411;50.090;21.954;2023-05-24T12:42:53;-19760.59;;;23.97;92.69
54503;BME280;40411;50.090;21.954;2023-05-24T12:45:22;-19776.13;;;24.61;93.88
54503;BME280;40411;50.090;21.954;2023-05-24T12:47:51;-19776.63;;;24.63;92.25
54503;BME280;40411;50.090;21.954;2023-05-24T12:50:18;-19777.13;;;24.65;93.84
54503;BME280;40411;50.090;21.954;2023-05-24T12:52:44;-19774.38;;;24.53;94.34
54503;BME280;40411;50.090;21.954;2023-05-24T12:55:14;-19765.75;;;24.18;94.99
54503;BME280;40411;50.090;21.954;2023-05-24T12:57:41;-19766.34;;;24.21;93.30